createdAt,value
2023-07-24T00:00:18.926Z,9.43
2023-07-24T00:02:58.257Z,9.45
2023-07-24T00:05:27.901Z,9.32
2023-07-24T00:08:02.034Z,10.00
2023-07-24T00:10:37.130Z,10.20
2023-07-24T00:13:06.103Z,8.05
2023-07-24T00:15:40.332Z,8.45
2023-07-24T00:18:12.285Z,8.68
2023-07-24T00:20:46.132Z,9.43
2023-07-24T00:23:22.839Z,8.90
2023-07-24T00:25:53.597Z,9.60
2023-07-24T00:28:28.392Z,10.15
2023-07-24T00:31:03.486Z,8.60
2023-07-24T00:33:32.544Z,10.35
2023-07-24T00:36:02.581Z,9.55
2023-07-24T00:38:35.044Z,8.30
2023-07-24T00:41:12.600Z,9.02
2023-07-24T00:43:46.503Z,9.05
2023-07-24T00:46:19.280Z,10.73
2023-07-24T00:48:52.481Z,8.32
2023-07-24T00:51:23.606Z,9.57
2023-07-24T00:53:57.367Z,10.98
2023-07-24T00:56:36.122Z,9.43
2023-07-24T00:59:10.993Z,8.68
2023-07-24T01:01:41.727Z,9.10
2023-07-24T01:04:13.387Z,8.77
2023-07-24T01:06:46.882Z,9.40
2023-07-24T01:09:18.976Z,9.25
2023-07-24T01:11:52.138Z,9.30
2023-07-24T01:14:26.729Z,8.43
2023-07-24T01:17:05.121Z,8.52
2023-07-24T01:19:42.740Z,8.43
2023-07-24T01:22:32.317Z,10.13
2023-07-24T01:25:25.145Z,8.95
2023-07-24T01:27:59.837Z,8.60
2023-07-24T01:30:33.907Z,9.05
2023-07-24T01:33:06.733Z,8.23
2023-07-24T01:35:40.640Z,8.02
2023-07-24T01:38:17.293Z,9.18
2023-07-24T01:40:50.817Z,8.63
2023-07-24T01:43:27.802Z,8.40
2023-07-24T01:46:02.980Z,9.88
2023-07-24T01:48:32.928Z,8.77
2023-07-24T01:51:06.326Z,7.85
2023-07-24T01:53:40.002Z,8.02
2023-07-24T01:56:14.320Z,10.07
2023-07-24T01:58:46.720Z,9.77
2023-07-24T02:01:19.116Z,8.70
2023-07-24T02:03:53.002Z,7.68
2023-07-24T02:06:22.112Z,8.73
2023-07-24T02:08:53.111Z,7.70
2023-07-24T02:11:30.381Z,9.27
2023-07-24T02:16:33.301Z,9.00
2023-07-24T02:19:08.960Z,8.70
2023-07-24T02:21:42.567Z,9.27
2023-07-24T02:24:11.735Z,7.65
2023-07-24T02:26:45.025Z,7.95
2023-07-24T02:29:19.120Z,9.85
2023-07-24T02:31:50.951Z,8.23
2023-07-24T02:34:29.398Z,9.60
2023-07-24T02:37:03.209Z,8.50
2023-07-24T02:39:32.787Z,8.85
2023-07-24T02:42:10.867Z,8.30
2023-07-24T02:44:47.469Z,9.27
2023-07-24T02:47:21.515Z,7.32
2023-07-24T02:49:55.368Z,8.93
2023-07-24T02:52:27.168Z,9.18
2023-07-24T02:54:59.783Z,9.45
2023-07-24T02:57:34.598Z,10.65
2023-07-24T03:00:07.477Z,9.20
2023-07-24T03:02:36.770Z,7.65
2023-07-24T03:05:11.573Z,7.95
2023-07-24T03:07:43.040Z,9.38
2023-07-24T03:10:14.913Z,8.27
2023-07-24T03:12:44.953Z,8.80
2023-07-24T03:15:17.050Z,8.13
2023-07-24T03:17:51.890Z,7.65
2023-07-24T03:20:23.282Z,9.27
2023-07-24T03:22:54.898Z,8.95
2023-07-24T03:25:31.495Z,8.27
2023-07-24T03:28:04.246Z,10.88
2023-07-24T03:30:37.770Z,9.80
2023-07-24T03:33:08.430Z,8.63
2023-07-24T03:35:44.056Z,8.95
2023-07-24T03:38:15.994Z,7.70
2023-07-24T03:40:50.254Z,8.32
2023-07-24T03:43:24.284Z,8.88
2023-07-24T03:45:53.903Z,8.65
2023-07-24T03:48:22.955Z,8.48
2023-07-24T03:51:12.322Z,8.65
2023-07-24T03:53:48.065Z,8.40
2023-07-24T03:56:23.003Z,9.63
2023-07-24T03:58:52.050Z,8.55
2023-07-24T04:01:24.225Z,8.20
2023-07-24T04:03:56.368Z,10.38
2023-07-24T04:06:26.397Z,8.15
2023-07-24T04:08:58.196Z,10.48
2023-07-24T04:11:28.383Z,10.50
2023-07-24T04:13:57.438Z,8.30
2023-07-24T04:16:29.062Z,9.57
2023-07-24T04:18:58.794Z,9.27
2023-07-24T04:21:33.356Z,7.90
2023-07-24T04:24:05.506Z,10.00
2023-07-24T04:26:38.450Z,10.18
2023-07-24T04:29:08.697Z,9.02
2023-07-24T04:31:40.650Z,8.48
2023-07-24T04:34:14.224Z,8.95
2023-07-24T04:36:43.446Z,19.80
2023-07-24T04:39:18.744Z,11.43
2023-07-24T04:41:56.035Z,10.50
2023-07-24T04:44:27.235Z,10.00
2023-07-24T04:46:58.918Z,11.68
2023-07-24T04:49:34.574Z,8.88
2023-07-24T04:52:05.864Z,10.20
2023-07-24T04:54:37.176Z,8.68
2023-07-24T04:57:08.855Z,10.38
2023-07-24T04:59:38.578Z,11.02
2023-07-24T05:02:07.915Z,9.23
2023-07-24T05:04:37.071Z,9.82
2023-07-24T05:07:11.595Z,9.10
2023-07-24T05:09:43.020Z,9.05
2023-07-24T05:12:14.186Z,8.93
2023-07-24T05:14:47.987Z,9.20
2023-07-24T05:17:20.092Z,9.02
2023-07-24T05:19:51.993Z,10.05
2023-07-24T05:22:25.427Z,10.00
2023-07-24T05:24:55.163Z,7.72
2023-07-24T05:27:29.326Z,8.85
2023-07-24T05:30:05.302Z,9.15
2023-07-24T05:32:35.130Z,8.15
2023-07-24T05:35:05.176Z,7.95
2023-07-24T05:37:40.708Z,7.82
2023-07-24T05:40:13.101Z,7.72
2023-07-24T05:42:45.056Z,9.77
2023-07-24T05:45:16.682Z,11.38
2023-07-24T05:47:51.006Z,9.80
2023-07-24T05:50:20.990Z,9.60
2023-07-24T05:52:52.341Z,8.93
2023-07-24T05:55:27.059Z,9.10
2023-07-24T05:57:58.108Z,9.50
2023-07-24T06:00:39.644Z,9.50
2023-07-24T06:03:15.946Z,8.38
2023-07-24T06:05:45.023Z,10.07
2023-07-24T06:08:14.481Z,8.40
2023-07-24T06:10:47.444Z,10.52
2023-07-24T06:13:19.808Z,8.70
2023-07-24T06:15:53.667Z,8.13
2023-07-24T06:18:25.552Z,7.93
2023-07-24T06:20:59.376Z,7.53
2023-07-24T06:23:34.167Z,8.13
2023-07-24T06:26:07.504Z,7.45
2023-07-24T06:28:36.582Z,8.25
2023-07-24T06:31:06.937Z,8.75
2023-07-24T06:33:35.930Z,8.18
2023-07-24T06:36:12.029Z,8.57
2023-07-24T06:38:44.313Z,8.77
2023-07-24T06:41:17.487Z,9.27
2023-07-24T06:43:48.884Z,7.93
2023-07-24T06:46:18.146Z,9.48
2023-07-24T06:48:49.298Z,7.72
2023-07-24T06:51:18.372Z,9.63
2023-07-24T06:53:53.025Z,8.50
2023-07-24T06:56:26.674Z,7.53
2023-07-24T06:58:58.071Z,8.50
2023-07-24T07:01:27.441Z,7.53
2023-07-24T07:03:57.970Z,7.72
2023-07-24T07:06:28.450Z,8.23
2023-07-24T07:09:06.926Z,7.85
2023-07-24T07:11:38.588Z,8.65
2023-07-24T07:14:15.700Z,8.20
2023-07-24T07:16:46.667Z,7.60
2023-07-24T07:19:20.393Z,8.65
2023-07-24T07:21:52.139Z,9.40
2023-07-24T07:24:24.739Z,8.70
2023-07-24T07:26:56.608Z,7.07
2023-07-24T07:31:55.561Z,9.07
2023-07-24T07:34:25.058Z,9.27
2023-07-24T07:36:56.902Z,8.82
2023-07-24T07:39:28.567Z,7.43
2023-07-24T07:42:16.220Z,7.65
2023-07-24T07:44:48.406Z,8.10
2023-07-24T07:47:20.312Z,6.82
2023-07-24T07:49:53.979Z,7.10
2023-07-24T07:52:29.145Z,9.02
2023-07-24T07:55:00.409Z,9.27
2023-07-24T07:57:29.882Z,7.07
2023-07-24T08:00:03.630Z,7.03
2023-07-24T08:02:41.722Z,6.20
2023-07-24T08:05:19.044Z,7.97
2023-07-24T08:07:53.059Z,7.82
2023-07-24T08:10:28.705Z,6.80
2023-07-24T08:13:01.193Z,6.93
2023-07-24T08:15:45.052Z,7.43
2023-07-24T08:18:17.147Z,6.88
2023-07-24T08:20:49.412Z,6.10
2023-07-24T08:23:18.799Z,6.82
2023-07-24T08:25:57.611Z,7.13
2023-07-24T08:28:27.013Z,7.07
2023-07-24T08:31:01.655Z,6.30
2023-07-24T08:33:32.741Z,6.70
2023-07-24T08:36:09.314Z,7.90
2023-07-24T08:38:42.727Z,7.07
2023-07-24T08:41:14.685Z,6.38
2023-07-24T08:43:45.759Z,7.40
2023-07-24T08:46:15.603Z,7.75
2023-07-24T08:48:53.364Z,6.60
2023-07-24T08:51:30.835Z,6.63
2023-07-24T08:54:04.462Z,6.30
2023-07-24T08:56:41.140Z,5.65
2023-07-24T08:59:10.620Z,6.68
2023-07-24T09:01:44.404Z,6.50
2023-07-24T09:04:16.116Z,6.20
2023-07-24T09:06:48.038Z,6.30
2023-07-24T09:09:18.352Z,8.02
2023-07-24T09:11:55.829Z,6.43
2023-07-24T09:14:33.969Z,7.40
2023-07-24T09:17:15.110Z,7.07
2023-07-24T09:19:48.134Z,6.10
2023-07-24T09:22:23.354Z,8.65
2023-07-24T09:25:00.647Z,7.97
2023-07-24T09:27:34.357Z,6.70
2023-07-24T09:30:16.882Z,7.22
2023-07-24T09:32:59.625Z,8.27
2023-07-24T09:35:30.734Z,8.02
2023-07-24T09:38:13.730Z,7.25
2023-07-24T09:40:47.970Z,7.03
2023-07-24T09:43:39.090Z,6.60
2023-07-24T09:46:11.960Z,7.57
2023-07-24T09:51:36.285Z,6.32
2023-07-24T09:54:20.432Z,6.88
2023-07-24T09:57:07.293Z,6.93
2023-07-24T09:59:54.331Z,6.32
2023-07-24T10:02:28.152Z,7.68
2023-07-24T10:05:04.028Z,7.40
2023-07-24T10:07:39.645Z,5.93
2023-07-24T10:10:10.060Z,6.85
2023-07-24T10:12:40.135Z,8.45
2023-07-24T10:15:13.616Z,7.13
2023-07-24T10:17:44.664Z,6.22
2023-07-24T10:20:16.845Z,7.03
2023-07-24T10:25:30.850Z,7.32
2023-07-24T10:28:12.564Z,7.43
2023-07-24T10:30:57.110Z,6.95
2023-07-24T10:33:33.894Z,7.65
2023-07-24T10:36:15.224Z,5.50
2023-07-24T10:38:45.992Z,6.22
2023-07-24T10:41:23.751Z,6.45
2023-07-24T10:44:02.115Z,6.00
2023-07-24T10:46:40.064Z,7.20
2023-07-24T10:49:10.523Z,7.65
2023-07-24T10:51:48.020Z,7.50
2023-07-24T10:54:23.983Z,7.40
2023-07-24T10:57:02.847Z,7.18
2023-07-24T10:59:41.946Z,8.35
2023-07-24T11:02:16.280Z,6.72
2023-07-24T11:04:48.132Z,7.30
2023-07-24T11:07:21.116Z,7.05
2023-07-24T11:09:52.964Z,7.18
2023-07-24T11:12:24.492Z,6.95
2023-07-24T11:14:56.186Z,7.45
2023-07-24T11:17:44.637Z,7.00
2023-07-24T11:20:18.723Z,6.70
2023-07-24T11:22:52.919Z,8.95
2023-07-24T11:25:28.971Z,6.28
2023-07-24T11:28:02.119Z,7.10
2023-07-24T11:30:31.429Z,6.40
2023-07-24T11:33:11.724Z,7.60
2023-07-24T11:35:44.370Z,7.68
2023-07-24T11:38:17.111Z,6.90
2023-07-24T11:40:52.244Z,7.18
2023-07-24T11:43:24.065Z,7.93
2023-07-24T11:48:29.864Z,8.80
2023-07-24T11:51:05.552Z,7.20
2023-07-24T11:53:40.100Z,6.95
2023-07-24T11:56:17.529Z,9.27
2023-07-24T11:58:49.508Z,7.35
2023-07-24T12:01:19.184Z,7.13
2023-07-24T12:03:56.133Z,8.07
2023-07-24T12:06:35.521Z,6.53
2023-07-24T12:09:13.896Z,6.75
2023-07-24T12:11:48.296Z,6.82
2023-07-24T12:14:23.984Z,8.15
2023-07-24T12:19:38.276Z,6.40
2023-07-24T12:22:10.348Z,6.72
2023-07-24T12:24:45.937Z,7.22
2023-07-24T12:27:22.048Z,7.60
2023-07-24T12:30:00.714Z,7.05
2023-07-24T12:32:33.563Z,8.25
2023-07-24T12:35:03.283Z,7.53
2023-07-24T12:37:35.512Z,6.60
2023-07-24T12:40:10.968Z,7.60
2023-07-24T12:42:48.181Z,7.35
2023-07-24T12:45:17.861Z,7.38
2023-07-24T12:47:51.953Z,6.18
2023-07-24T12:50:25.124Z,6.90
2023-07-24T12:52:54.258Z,7.13
2023-07-24T12:58:00.104Z,7.55
2023-07-24T13:00:37.176Z,6.63
2023-07-24T13:03:10.310Z,8.52
2023-07-24T13:05:40.448Z,6.72
2023-07-24T13:08:11.763Z,6.97
2023-07-24T13:10:44.122Z,6.20
2023-07-24T13:13:14.259Z,6.88
2023-07-24T13:15:46.557Z,6.38
2023-07-24T13:18:27.647Z,7.53
2023-07-24T13:21:04.194Z,6.55
2023-07-24T13:23:41.288Z,7.72
2023-07-24T13:26:15.127Z,6.75
2023-07-24T13:28:49.853Z,6.32
2023-07-24T13:31:22.581Z,7.32
2023-07-24T13:33:55.271Z,8.15
2023-07-24T13:36:26.850Z,7.75
2023-07-24T13:39:03.332Z,7.40
2023-07-24T13:41:35.770Z,8.48
2023-07-24T13:44:09.221Z,6.50
2023-07-24T13:46:43.013Z,7.15
2023-07-24T13:49:15.791Z,7.40
2023-07-24T13:51:49.277Z,7.20
2023-07-24T13:54:21.732Z,7.22
2023-07-24T13:56:51.499Z,6.80
2023-07-24T13:59:22.008Z,7.10
2023-07-24T14:01:57.332Z,6.85
2023-07-24T14:04:30.011Z,7.53
2023-07-24T14:07:02.605Z,7.15
2023-07-24T14:09:34.550Z,7.65
2023-07-24T14:12:08.362Z,7.05
2023-07-24T14:14:37.832Z,7.38
2023-07-24T14:17:07.041Z,7.28
2023-07-24T14:19:37.960Z,8.38
2023-07-24T14:22:08.213Z,6.68
2023-07-24T14:24:39.573Z,6.13
2023-07-24T14:27:10.170Z,8.05
2023-07-24T14:29:40.574Z,7.30
2023-07-24T14:32:16.178Z,8.45
2023-07-24T14:34:52.656Z,8.35
2023-07-24T14:37:23.964Z,6.97
2023-07-24T14:39:54.077Z,7.35
2023-07-24T14:42:24.310Z,6.85
2023-07-24T14:44:56.883Z,8.23
2023-07-24T14:47:26.254Z,7.47
2023-07-24T14:50:01.231Z,7.22
2023-07-24T14:52:32.895Z,7.82
2023-07-24T14:55:02.111Z,7.10
2023-07-24T14:57:35.992Z,9.32
2023-07-24T15:00:10.122Z,7.80
2023-07-24T15:02:39.884Z,7.97
2023-07-24T15:05:09.435Z,7.93
2023-07-24T15:07:41.613Z,7.97
2023-07-24T15:12:47.415Z,8.55
2023-07-24T15:15:19.440Z,8.20
2023-07-24T15:17:51.859Z,7.82
2023-07-24T15:20:24.886Z,9.77
2023-07-24T15:22:57.281Z,7.97
2023-07-24T15:25:30.551Z,7.22
2023-07-24T15:28:06.257Z,8.07
2023-07-24T15:30:35.976Z,6.22
2023-07-24T15:33:08.736Z,5.90
2023-07-24T15:35:41.237Z,9.77
2023-07-24T15:38:13.262Z,6.80
2023-07-24T15:40:43.665Z,7.55
2023-07-24T15:43:13.207Z,7.00
2023-07-24T15:45:45.178Z,7.22
2023-07-24T15:48:22.809Z,6.43
2023-07-24T15:50:55.825Z,7.85
2023-07-24T15:53:27.929Z,6.82
2023-07-24T15:56:02.310Z,7.57
2023-07-24T15:58:32.362Z,7.20
2023-07-24T16:01:02.934Z,8.05
2023-07-24T16:03:34.757Z,7.70
2023-07-24T16:06:11.529Z,8.88
2023-07-24T16:08:44.692Z,7.65
2023-07-24T16:11:16.872Z,7.75
2023-07-24T16:13:52.411Z,7.85
2023-07-24T16:16:23.814Z,9.55
2023-07-24T16:19:17.867Z,6.70
2023-07-24T16:21:51.719Z,7.43
2023-07-24T16:24:23.460Z,6.15
2023-07-24T16:26:58.257Z,7.40
2023-07-24T16:29:34.204Z,8.77
2023-07-24T16:32:03.716Z,8.13
2023-07-24T16:34:38.025Z,7.15
2023-07-24T16:37:09.847Z,8.07
2023-07-24T16:39:40.518Z,8.18
2023-07-24T16:42:10.481Z,9.32
2023-07-24T16:44:40.620Z,7.47
2023-07-24T16:47:14.960Z,7.82
2023-07-24T16:49:44.866Z,7.10
2023-07-24T16:52:16.371Z,7.50
2023-07-24T16:54:46.520Z,6.85
2023-07-24T16:57:16.241Z,6.88
2023-07-24T16:59:45.759Z,7.75
2023-07-24T17:02:15.653Z,7.95
2023-07-24T17:04:47.334Z,8.20
2023-07-24T17:07:19.745Z,8.43
2023-07-24T17:09:49.253Z,8.82
2023-07-24T17:12:18.652Z,9.45
2023-07-24T17:14:53.269Z,8.95
2023-07-24T17:17:22.774Z,7.70
2023-07-24T17:19:52.739Z,9.38
2023-07-24T17:22:22.671Z,8.18
2023-07-24T17:24:53.845Z,8.85
2023-07-24T17:27:27.184Z,11.10
2023-07-24T17:29:59.657Z,8.55
2023-07-24T17:32:32.556Z,8.35
2023-07-24T17:35:05.484Z,8.07
2023-07-24T17:37:40.677Z,12.13
2023-07-24T17:40:17.805Z,8.70
2023-07-24T17:42:47.750Z,9.02
2023-07-24T17:45:19.995Z,9.82
2023-07-24T17:47:57.430Z,7.80
2023-07-24T17:50:30.447Z,9.07
2023-07-24T17:53:01.070Z,8.80
2023-07-24T17:55:34.388Z,9.65
2023-07-24T17:58:06.724Z,8.35
2023-07-24T18:00:36.587Z,8.30
2023-07-24T18:03:08.913Z,8.65
2023-07-24T18:05:43.247Z,9.02
2023-07-24T18:08:15.549Z,8.82
2023-07-24T18:10:48.874Z,10.32
2023-07-24T18:13:22.382Z,9.02
2023-07-24T18:15:59.927Z,9.43
2023-07-24T18:18:38.790Z,7.85
2023-07-24T18:21:18.428Z,10.25
2023-07-24T18:23:53.962Z,8.68
2023-07-24T18:26:26.360Z,7.88
2023-07-24T18:29:01.790Z,8.73
2023-07-24T18:31:38.281Z,8.23
2023-07-24T18:34:10.805Z,8.85
2023-07-24T18:36:48.992Z,7.60
2023-07-24T18:41:52.452Z,9.25
2023-07-24T18:44:27.567Z,9.35
2023-07-24T18:46:57.059Z,7.82
2023-07-24T18:49:26.943Z,8.20
2023-07-24T18:51:56.514Z,10.27
2023-07-24T18:54:32.465Z,8.07
2023-07-24T18:57:08.855Z,8.90
2023-07-24T18:59:44.030Z,8.43
2023-07-24T19:02:17.271Z,6.97
2023-07-24T19:04:48.352Z,8.23
2023-07-24T19:07:18.164Z,8.15
2023-07-24T19:09:49.120Z,8.25
2023-07-24T19:12:21.820Z,8.65
2023-07-24T19:14:54.275Z,8.07
2023-07-24T19:17:27.350Z,6.70
2023-07-24T19:22:35.082Z,8.10
2023-07-24T19:25:09.232Z,9.95
2023-07-24T19:27:44.268Z,7.80
2023-07-24T19:30:16.959Z,7.97
2023-07-24T19:32:46.294Z,7.10
2023-07-24T19:35:21.630Z,7.75
2023-07-24T19:37:51.114Z,7.35
2023-07-24T19:40:25.736Z,8.70
2023-07-24T19:42:58.229Z,7.25
2023-07-24T19:45:47.380Z,9.10
2023-07-24T19:48:17.568Z,7.68
2023-07-24T19:50:56.869Z,7.68
2023-07-24T19:53:31.638Z,7.68
2023-07-24T19:56:02.967Z,7.82
2023-07-24T19:58:37.906Z,7.45
2023-07-24T20:01:13.115Z,7.88
2023-07-24T20:03:42.942Z,7.28
2023-07-24T20:06:16.336Z,12.10
2023-07-24T20:08:50.735Z,6.65
2023-07-24T20:11:22.887Z,7.38
2023-07-24T20:13:55.078Z,6.95
2023-07-24T20:16:30.807Z,9.43
2023-07-24T20:19:00.480Z,10.13
2023-07-24T20:21:30.096Z,7.35
2023-07-24T20:26:44.185Z,7.65
2023-07-24T20:29:15.727Z,6.75
2023-07-24T20:31:45.184Z,7.63
2023-07-24T20:34:14.362Z,7.22
2023-07-24T20:36:43.587Z,8.38
2023-07-24T20:39:18.899Z,7.13
2023-07-24T20:41:53.730Z,9.02
2023-07-24T20:49:31.379Z,7.10
2023-07-24T20:52:04.205Z,7.57
2023-07-24T20:54:36.076Z,7.90
2023-07-24T20:59:44.756Z,9.40
2023-07-24T21:02:15.088Z,8.80
2023-07-24T21:04:44.144Z,9.00
2023-07-24T21:07:15.469Z,9.50
2023-07-24T21:09:53.160Z,8.93
2023-07-24T21:12:28.678Z,7.57
2023-07-24T21:14:59.993Z,9.77
2023-07-24T21:17:31.940Z,11.00
2023-07-24T21:20:01.066Z,9.75
2023-07-24T21:22:33.961Z,9.95
2023-07-24T21:25:09.670Z,11.38
2023-07-24T21:27:45.981Z,9.50
2023-07-24T21:30:17.779Z,8.45
2023-07-24T21:32:49.001Z,9.00
2023-07-24T21:35:20.397Z,9.35
2023-07-24T21:37:51.751Z,8.38
2023-07-24T21:40:25.055Z,10.00
2023-07-24T21:42:56.465Z,9.05
2023-07-24T21:45:26.320Z,11.68
2023-07-24T21:47:57.509Z,10.13
2023-07-24T21:50:26.472Z,10.10
2023-07-24T21:52:57.770Z,10.15
2023-07-24T21:55:29.019Z,10.63
2023-07-24T21:58:03.488Z,11.27
2023-07-24T22:00:34.980Z,12.15
2023-07-24T22:03:07.196Z,10.77
2023-07-24T22:05:38.326Z,9.05
2023-07-24T22:08:07.407Z,13.75
2023-07-24T22:10:36.642Z,14.00
2023-07-24T22:13:05.790Z,12.20
2023-07-24T22:15:34.742Z,11.15
2023-07-24T22:18:03.754Z,11.45
2023-07-24T22:20:40.515Z,10.65
2023-07-24T22:23:18.202Z,11.77
2023-07-24T22:25:48.878Z,11.23
2023-07-24T22:28:20.906Z,12.65
2023-07-24T22:30:50.649Z,10.88
2023-07-24T22:33:21.958Z,10.93
2023-07-24T22:36:00.246Z,10.55
2023-07-24T22:38:32.237Z,10.95
2023-07-24T22:41:13.039Z,10.77
2023-07-24T22:43:46.078Z,12.48
2023-07-24T22:46:16.190Z,11.63
2023-07-24T22:48:51.954Z,14.32
2023-07-24T22:51:23.093Z,12.63
2023-07-24T22:53:52.420Z,13.13
2023-07-24T22:56:23.970Z,11.50
2023-07-24T22:59:05.244Z,9.27
2023-07-24T23:01:39.560Z,9.90
2023-07-24T23:04:11.500Z,11.80
2023-07-24T23:06:40.386Z,13.63
2023-07-24T23:09:09.517Z,11.02
2023-07-24T23:11:42.241Z,10.98
2023-07-24T23:14:13.749Z,11.05
2023-07-24T23:16:42.888Z,12.23
2023-07-24T23:19:11.904Z,11.10
2023-07-24T23:21:43.951Z,11.25
2023-07-24T23:24:15.324Z,10.77
2023-07-24T23:26:47.059Z,12.18
2023-07-24T23:29:18.820Z,11.13
2023-07-24T23:31:50.147Z,12.77
2023-07-24T23:34:21.648Z,9.90
2023-07-24T23:36:52.955Z,10.35
2023-07-24T23:39:22.262Z,10.60
2023-07-24T23:41:58.861Z,11.60
2023-07-24T23:44:33.547Z,11.10
2023-07-24T23:47:02.451Z,13.88
2023-07-24T23:49:31.493Z,12.48
2023-07-24T23:52:00.542Z,11.90
2023-07-24T23:54:35.101Z,10.13
2023-07-24T23:57:07.213Z,10.25
2023-07-24T23:59:39.009Z,10.45
